sensor_id;sensor_type;location;lat;lon;timestamp;P1;durP1;ratioP1;P2;durP2;ratioP2
65328;SDS011;51941;52.210;5.158;2022-11-20T00:00:15;13.63;;;8.05;;
65328;SDS011;51941;52.210;5.158;2022-11-20T00:02:42;14.60;;;8.90;;
65328;SDS011;51941;52.210;5.158;2022-11-20T00:05:09;12.13;;;8.18;;
65328;SDS011;51941;52.210;5.158;2022-11-20T00:07:35;15.88;;;9.40;;
65328;SDS011;51941;52.210;5.158;2022-11-20T00:10:04;13.38;;;8.63;;
65328;SDS011;51941;52.210;5.158;2022-11-20T00:12:31;16.30;;;9.85;;
65328;SDS011;51941;52.210;5.158;2022-11-20T00:14:58;14.70;;;9.32;;
65328;SDS011;51941;52.210;5.158;2022-11-20T00:17:25;13.20;;;8.52;;
65328;SDS011;51941;52.210;5.158;2022-11-20T00:19:52;14.73;;;8.95;;
65328;SDS011;51941;52.210;5.158;2022-11-20T00:22:19;15.27;;;10.27;;
65328;SDS011;51941;52.210;5.158;2022-11-20T00:24:45;16.55;;;10.75;;
65328;SDS011;51941;52.210;5.158;2022-11-20T00:27:13;15.38;;;10.07;;
65328;SDS011;51941;52.210;5.158;2022-11-20T00:29:40;16.83;;;10.30;;
65328;SDS011;51941;52.210;5.158;2022-11-20T00:32:07;14.00;;;9.35;;
65328;SDS011;51941;52.210;5.158;2022-11-20T00:34:33;14.15;;;9.35;;
65328;SDS011;51941;52.210;5.158;2022-11-20T00:37:00;15.15;;;9.25;;
65328;SDS011;51941;52.210;5.158;2022-11-20T00:39:27;13.48;;;8.57;;
65328;SDS011;51941;52.210;5.158;2022-11-20T00:41:54;15.68;;;8.63;;
65328;SDS011;51941;52.210;5.158;2022-11-20T00:44:22;13.20;;;7.80;;
65328;SDS011;51941;52.210;5.158;2022-11-20T00:46:48;14.80;;;9.15;;
65328;SDS011;51941;52.210;5.158;2022-11-20T00:49:15;18.10;;;9.95;;
65328;SDS011;51941;52.210;5.158;2022-11-20T00:51:42;14.45;;;9.70;;
65328;SDS011;51941;52.210;5.158;2022-11-20T00:54:08;17.83;;;9.95;;
65328;SDS011;51941;52.210;5.158;2022-11-20T00:56:35;18.25;;;10.73;;
65328;SDS011;51941;52.210;5.158;2022-11-20T00:59:02;16.85;;;10.15;;
65328;SDS011;51941;52.210;5.158;2022-11-20T01:01:30;19.63;;;10.93;;
65328;SDS011;51941;52.210;5.158;2022-11-20T01:03:58;19.40;;;10.75;;
65328;SDS011;51941;52.210;5.158;2022-11-20T01:06:26;19.83;;;11.27;;
65328;SDS011;51941;52.210;5.158;2022-11-20T01:08:55;18.15;;;10.57;;
65328;SDS011;51941;52.210;5.158;2022-11-20T01:11:24;16.63;;;10.10;;
65328;SDS011;51941;52.210;5.158;2022-11-20T01:13:52;17.85;;;10.75;;
65328;SDS011;51941;52.210;5.158;2022-11-20T01:16:21;17.08;;;10.43;;
65328;SDS011;51941;52.210;5.158;2022-11-20T01:18:52;19.85;;;10.60;;
65328;SDS011;51941;52.210;5.158;2022-11-20T01:21:21;17.33;;;10.25;;
65328;SDS011;51941;52.210;5.158;2022-11-20T01:23:51;20.42;;;10.93;;
65328;SDS011;51941;52.210;5.158;2022-11-20T01:26:19;17.52;;;10.45;;
65328;SDS011;51941;52.210;5.158;2022-11-20T01:28:47;17.08;;;10.00;;
65328;SDS011;51941;52.210;5.158;2022-11-20T01:31:14;18.55;;;11.15;;
65328;SDS011;51941;52.210;5.158;2022-11-20T01:33:43;21.35;;;12.00;;
65328;SDS011;51941;52.210;5.158;2022-11-20T01:36:12;14.88;;;9.68;;
65328;SDS011;51941;52.210;5.158;2022-11-20T01:38:39;16.80;;;9.88;;
65328;SDS011;51941;52.210;5.158;2022-11-20T01:41:06;16.85;;;10.50;;
65328;SDS011;51941;52.210;5.158;2022-11-20T01:43:33;12.32;;;8.20;;
65328;SDS011;51941;52.210;5.158;2022-11-20T01:48:47;16.65;;;9.90;;
65328;SDS011;51941;52.210;5.158;2022-11-20T01:51:22;13.88;;;8.50;;
65328;SDS011;51941;52.210;5.158;2022-11-20T01:53:55;13.32;;;8.52;;
65328;SDS011;51941;52.210;5.158;2022-11-20T01:56:27;12.95;;;7.78;;
65328;SDS011;51941;52.210;5.158;2022-11-20T01:58:56;13.20;;;8.32;;
65328;SDS011;51941;52.210;5.158;2022-11-20T02:01:26;14.85;;;9.23;;
65328;SDS011;51941;52.210;5.158;2022-11-20T02:03:52;14.88;;;9.82;;
65328;SDS011;51941;52.210;5.158;2022-11-20T02:06:23;16.38;;;10.10;;
65328;SDS011;51941;52.210;5.158;2022-11-20T02:08:52;15.27;;;9.40;;
65328;SDS011;51941;52.210;5.158;2022-11-20T02:11:19;14.95;;;10.45;;
65328;SDS011;51941;52.210;5.158;2022-11-20T02:13:46;15.93;;;9.88;;
65328;SDS011;51941;52.210;5.158;2022-11-20T02:16:17;16.67;;;9.90;;
65328;SDS011;51941;52.210;5.158;2022-11-20T02:18:47;15.82;;;10.35;;
65328;SDS011;51941;52.210;5.158;2022-11-20T02:21:17;19.92;;;10.55;;
65328;SDS011;51941;52.210;5.158;2022-11-20T02:26:42;18.40;;;10.57;;
65328;SDS011;51941;52.210;5.158;2022-11-20T02:29:13;18.08;;;10.38;;
65328;SDS011;51941;52.210;5.158;2022-11-20T02:31:43;15.93;;;9.77;;
65328;SDS011;51941;52.210;5.158;2022-11-20T02:34:10;16.25;;;9.93;;
65328;SDS011;51941;52.210;5.158;2022-11-20T02:36:37;14.85;;;9.27;;
65328;SDS011;51941;52.210;5.158;2022-11-20T02:39:07;14.88;;;9.02;;
65328;SDS011;51941;52.210;5.158;2022-11-20T02:41:37;16.33;;;10.05;;
65328;SDS011;51941;52.210;5.158;2022-11-20T02:44:04;17.27;;;10.55;;
65328;SDS011;51941;52.210;5.158;2022-11-20T02:46:31;17.38;;;9.95;;
65328;SDS011;51941;52.210;5.158;2022-11-20T02:49:00;15.57;;;9.85;;
65328;SDS011;51941;52.210;5.158;2022-11-20T02:51:27;17.23;;;9.88;;
65328;SDS011;51941;52.210;5.158;2022-11-20T02:53:54;15.90;;;10.25;;
65328;SDS011;51941;52.210;5.158;2022-11-20T02:56:20;16.10;;;10.32;;
65328;SDS011;51941;52.210;5.158;2022-11-20T02:58:48;18.60;;;10.45;;
65328;SDS011;51941;52.210;5.158;2022-11-20T03:01:15;14.75;;;9.70;;
65328;SDS011;51941;52.210;5.158;2022-11-20T03:03:42;15.15;;;9.60;;
65328;SDS011;51941;52.210;5.158;2022-11-20T03:06:09;15.93;;;10.00;;
65328;SDS011;51941;52.210;5.158;2022-11-20T03:08:35;15.48;;;9.57;;
65328;SDS011;51941;52.210;5.158;2022-11-20T03:11:03;17.60;;;10.00;;
65328;SDS011;51941;52.210;5.158;2022-11-20T03:13:31;15.63;;;9.80;;
65328;SDS011;51941;52.210;5.158;2022-11-20T03:16:03;15.02;;;9.90;;
65328;SDS011;51941;52.210;5.158;2022-11-20T03:18:31;15.15;;;9.57;;
65328;SDS011;51941;52.210;5.158;2022-11-20T03:20:58;14.38;;;9.55;;
65328;SDS011;51941;52.210;5.158;2022-11-20T03:23:25;16.23;;;9.25;;
65328;SDS011;51941;52.210;5.158;2022-11-20T03:25:52;16.88;;;10.05;;
65328;SDS011;51941;52.210;5.158;2022-11-20T03:28:19;17.17;;;10.63;;
65328;SDS011;51941;52.210;5.158;2022-11-20T03:30:46;16.75;;;9.52;;
65328;SDS011;51941;52.210;5.158;2022-11-20T03:33:14;15.32;;;9.60;;
65328;SDS011;51941;52.210;5.158;2022-11-20T03:35:40;14.68;;;9.25;;
65328;SDS011;51941;52.210;5.158;2022-11-20T03:38:07;14.77;;;8.98;;
65328;SDS011;51941;52.210;5.158;2022-11-20T03:40:34;13.60;;;8.73;;
65328;SDS011;51941;52.210;5.158;2022-11-20T03:43:01;17.80;;;10.80;;
65328;SDS011;51941;52.210;5.158;2022-11-20T03:45:28;18.92;;;11.23;;
65328;SDS011;51941;52.210;5.158;2022-11-20T03:47:54;16.77;;;10.43;;
65328;SDS011;51941;52.210;5.158;2022-11-20T03:50:22;17.08;;;10.95;;
65328;SDS011;51941;52.210;5.158;2022-11-20T03:52:49;16.40;;;10.40;;
65328;SDS011;51941;52.210;5.158;2022-11-20T03:55:16;18.00;;;10.13;;
65328;SDS011;51941;52.210;5.158;2022-11-20T03:57:43;13.68;;;9.27;;
65328;SDS011;51941;52.210;5.158;2022-11-20T04:00:10;17.42;;;10.38;;
65328;SDS011;51941;52.210;5.158;2022-11-20T04:02:37;19.08;;;11.63;;
65328;SDS011;51941;52.210;5.158;2022-11-20T04:05:04;17.15;;;10.88;;
65328;SDS011;51941;52.210;5.158;2022-11-20T04:07:34;18.27;;;11.45;;
65328;SDS011;51941;52.210;5.158;2022-11-20T04:10:01;16.42;;;10.43;;
65328;SDS011;51941;52.210;5.158;2022-11-20T04:12:31;15.10;;;9.43;;
65328;SDS011;51941;52.210;5.158;2022-11-20T04:14:58;15.88;;;10.15;;
65328;SDS011;51941;52.210;5.158;2022-11-20T04:17:25;17.30;;;10.63;;
65328;SDS011;51941;52.210;5.158;2022-11-20T04:19:52;18.30;;;11.82;;
65328;SDS011;51941;52.210;5.158;2022-11-20T04:22:18;21.27;;;12.35;;
65328;SDS011;51941;52.210;5.158;2022-11-20T04:24:46;20.13;;;11.07;;
65328;SDS011;51941;52.210;5.158;2022-11-20T04:27:13;18.23;;;10.85;;
65328;SDS011;51941;52.210;5.158;2022-11-20T04:29:40;19.77;;;11.10;;
65328;SDS011;51941;52.210;5.158;2022-11-20T04:32:06;18.95;;;12.00;;
65328;SDS011;51941;52.210;5.158;2022-11-20T04:34:33;19.95;;;11.18;;
65328;SDS011;51941;52.210;5.158;2022-11-20T04:37:00;17.58;;;10.88;;
65328;SDS011;51941;52.210;5.158;2022-11-20T04:39:27;17.52;;;11.38;;
65328;SDS011;51941;52.210;5.158;2022-11-20T04:41:55;17.52;;;10.82;;
65328;SDS011;51941;52.210;5.158;2022-11-20T04:44:35;18.85;;;11.57;;
65328;SDS011;51941;52.210;5.158;2022-11-20T04:47:02;16.92;;;10.75;;
65328;SDS011;51941;52.210;5.158;2022-11-20T04:49:29;19.27;;;11.25;;
65328;SDS011;51941;52.210;5.158;2022-11-20T04:51:56;16.27;;;10.25;;
65328;SDS011;51941;52.210;5.158;2022-11-20T04:54:23;18.35;;;11.20;;
65328;SDS011;51941;52.210;5.158;2022-11-20T04:56:50;16.92;;;11.18;;
65328;SDS011;51941;52.210;5.158;2022-11-20T04:59:18;20.83;;;11.77;;
65328;SDS011;51941;52.210;5.158;2022-11-20T05:01:45;17.80;;;10.68;;
65328;SDS011;51941;52.210;5.158;2022-11-20T05:04:11;17.52;;;11.07;;
65328;SDS011;51941;52.210;5.158;2022-11-20T05:06:38;17.80;;;10.70;;
65328;SDS011;51941;52.210;5.158;2022-11-20T05:09:05;16.25;;;9.85;;
65328;SDS011;51941;52.210;5.158;2022-11-20T05:11:32;16.83;;;10.85;;
65328;SDS011;51941;52.210;5.158;2022-11-20T05:13:59;17.83;;;10.50;;
65328;SDS011;51941;52.210;5.158;2022-11-20T05:16:27;17.45;;;10.82;;
65328;SDS011;51941;52.210;5.158;2022-11-20T05:18:54;19.50;;;10.93;;
65328;SDS011;51941;52.210;5.158;2022-11-20T05:21:20;16.95;;;10.77;;
65328;SDS011;51941;52.210;5.158;2022-11-20T05:23:48;16.63;;;10.45;;
65328;SDS011;51941;52.210;5.158;2022-11-20T05:26:15;18.05;;;10.80;;
65328;SDS011;51941;52.210;5.158;2022-11-20T05:28:43;17.23;;;10.90;;
65328;SDS011;51941;52.210;5.158;2022-11-20T05:31:13;18.83;;;10.32;;
65328;SDS011;51941;52.210;5.158;2022-11-20T05:33:43;16.15;;;10.90;;
65328;SDS011;51941;52.210;5.158;2022-11-20T05:36:11;16.15;;;10.02;;
65328;SDS011;51941;52.210;5.158;2022-11-20T05:38:40;15.73;;;9.98;;
65328;SDS011;51941;52.210;5.158;2022-11-20T05:41:07;16.67;;;10.07;;
65328;SDS011;51941;52.210;5.158;2022-11-20T05:43:36;15.40;;;9.77;;
65328;SDS011;51941;52.210;5.158;2022-11-20T05:46:04;15.52;;;10.00;;
65328;SDS011;51941;52.210;5.158;2022-11-20T05:48:32;15.50;;;10.25;;
65328;SDS011;51941;52.210;5.158;2022-11-20T05:51:02;19.45;;;10.70;;
65328;SDS011;51941;52.210;5.158;2022-11-20T05:53:30;17.48;;;11.23;;
65328;SDS011;51941;52.210;5.158;2022-11-20T05:55:59;17.13;;;10.80;;
65328;SDS011;51941;52.210;5.158;2022-11-20T05:58:26;17.83;;;10.10;;
65328;SDS011;51941;52.210;5.158;2022-11-20T06:00:53;19.60;;;10.85;;
65328;SDS011;51941;52.210;5.158;2022-11-20T06:03:20;19.83;;;11.40;;
65328;SDS011;51941;52.210;5.158;2022-11-20T06:05:47;17.92;;;11.60;;
65328;SDS011;51941;52.210;5.158;2022-11-20T06:08:15;18.67;;;10.25;;
65328;SDS011;51941;52.210;5.158;2022-11-20T06:10:42;17.70;;;10.65;;
65328;SDS011;51941;52.210;5.158;2022-11-20T06:13:09;21.75;;;11.93;;
65328;SDS011;51941;52.210;5.158;2022-11-20T06:15:35;21.98;;;12.25;;
65328;SDS011;51941;52.210;5.158;2022-11-20T06:18:02;19.83;;;11.80;;
65328;SDS011;51941;52.210;5.158;2022-11-20T06:20:29;19.58;;;11.55;;
65328;SDS011;51941;52.210;5.158;2022-11-20T06:22:56;19.23;;;11.55;;
65328;SDS011;51941;52.210;5.158;2022-11-20T06:25:24;21.05;;;11.95;;
65328;SDS011;51941;52.210;5.158;2022-11-20T06:27:50;16.95;;;10.57;;
65328;SDS011;51941;52.210;5.158;2022-11-20T06:30:18;17.88;;;10.50;;
65328;SDS011;51941;52.210;5.158;2022-11-20T06:32:45;17.00;;;10.38;;
65328;SDS011;51941;52.210;5.158;2022-11-20T06:35:11;16.23;;;10.52;;
65328;SDS011;51941;52.210;5.158;2022-11-20T06:37:38;18.15;;;11.35;;
65328;SDS011;51941;52.210;5.158;2022-11-20T06:40:05;18.67;;;11.20;;
65328;SDS011;51941;52.210;5.158;2022-11-20T06:42:34;19.02;;;11.13;;
65328;SDS011;51941;52.210;5.158;2022-11-20T06:45:01;17.58;;;11.10;;
65328;SDS011;51941;52.210;5.158;2022-11-20T06:47:27;20.45;;;11.00;;
65328;SDS011;51941;52.210;5.158;2022-11-20T06:49:54;17.85;;;11.35;;
65328;SDS011;51941;52.210;5.158;2022-11-20T06:52:21;16.77;;;10.50;;
65328;SDS011;51941;52.210;5.158;2022-11-20T06:54:47;16.17;;;10.32;;
65328;SDS011;51941;52.210;5.158;2022-11-20T06:57:14;16.27;;;10.55;;
65328;SDS011;51941;52.210;5.158;2022-11-20T06:59:42;15.77;;;10.52;;
65328;SDS011;51941;52.210;5.158;2022-11-20T07:02:09;15.73;;;9.85;;
65328;SDS011;51941;52.210;5.158;2022-11-20T07:04:37;16.17;;;10.77;;
65328;SDS011;51941;52.210;5.158;2022-11-20T07:07:04;14.68;;;9.30;;
65328;SDS011;51941;52.210;5.158;2022-11-20T07:09:31;15.40;;;9.52;;
65328;SDS011;51941;52.210;5.158;2022-11-20T07:11:58;15.88;;;10.05;;
65328;SDS011;51941;52.210;5.158;2022-11-20T07:14:25;19.23;;;12.50;;
65328;SDS011;51941;52.210;5.158;2022-11-20T07:16:53;17.85;;;10.95;;
65328;SDS011;51941;52.210;5.158;2022-11-20T07:19:20;17.10;;;11.15;;
65328;SDS011;51941;52.210;5.158;2022-11-20T07:21:47;16.70;;;10.73;;
65328;SDS011;51941;52.210;5.158;2022-11-20T07:24:13;17.70;;;10.93;;
65328;SDS011;51941;52.210;5.158;2022-11-20T07:26:40;18.00;;;11.07;;
65328;SDS011;51941;52.210;5.158;2022-11-20T07:29:07;17.38;;;11.38;;
65328;SDS011;51941;52.210;5.158;2022-11-20T07:31:34;18.88;;;11.40;;
65328;SDS011;51941;52.210;5.158;2022-11-20T07:34:02;17.42;;;11.27;;
65328;SDS011;51941;52.210;5.158;2022-11-20T07:36:29;18.65;;;11.68;;
65328;SDS011;51941;52.210;5.158;2022-11-20T07:38:55;16.65;;;9.95;;
65328;SDS011;51941;52.210;5.158;2022-11-20T07:41:22;17.15;;;10.38;;
65328;SDS011;51941;52.210;5.158;2022-11-20T07:43:49;23.80;;;12.55;;
65328;SDS011;51941;52.210;5.158;2022-11-20T07:46:16;18.35;;;11.80;;
65328;SDS011;51941;52.210;5.158;2022-11-20T07:48:42;21.58;;;12.23;;
65328;SDS011;51941;52.210;5.158;2022-11-20T07:51:10;21.77;;;13.10;;
65328;SDS011;51941;52.210;5.158;2022-11-20T07:53:38;17.50;;;10.83;;
65328;SDS011;51941;52.210;5.158;2022-11-20T07:56:05;17.90;;;11.77;;
65328;SDS011;51941;52.210;5.158;2022-11-20T07:58:32;18.63;;;11.25;;
65328;SDS011;51941;52.210;5.158;2022-11-20T08:01:02;20.15;;;11.88;;
65328;SDS011;51941;52.210;5.158;2022-11-20T08:03:29;18.95;;;11.57;;
65328;SDS011;51941;52.210;5.158;2022-11-20T08:05:58;18.77;;;11.27;;
65328;SDS011;51941;52.210;5.158;2022-11-20T08:08:26;18.42;;;12.05;;
65328;SDS011;51941;52.210;5.158;2022-11-20T08:10:53;20.75;;;13.80;;
65328;SDS011;51941;52.210;5.158;2022-11-20T08:13:40;19.17;;;12.68;;
65328;SDS011;51941;52.210;5.158;2022-11-20T08:16:25;22.98;;;13.43;;
65328;SDS011;51941;52.210;5.158;2022-11-20T08:18:51;23.33;;;13.63;;
65328;SDS011;51941;52.210;5.158;2022-11-20T08:21:18;20.25;;;13.25;;
65328;SDS011;51941;52.210;5.158;2022-11-20T08:23:46;22.35;;;13.10;;
65328;SDS011;51941;52.210;5.158;2022-11-20T08:26:13;19.52;;;12.73;;
65328;SDS011;51941;52.210;5.158;2022-11-20T08:28:40;18.67;;;12.75;;
65328;SDS011;51941;52.210;5.158;2022-11-20T08:31:06;17.00;;;11.50;;
65328;SDS011;51941;52.210;5.158;2022-11-20T08:33:34;17.63;;;11.93;;
65328;SDS011;51941;52.210;5.158;2022-11-20T08:36:02;18.10;;;11.45;;
65328;SDS011;51941;52.210;5.158;2022-11-20T08:38:30;19.02;;;11.70;;
65328;SDS011;51941;52.210;5.158;2022-11-20T08:40:58;19.85;;;12.93;;
65328;SDS011;51941;52.210;5.158;2022-11-20T08:43:43;24.02;;;13.85;;
65328;SDS011;51941;52.210;5.158;2022-11-20T08:46:10;21.33;;;12.95;;
65328;SDS011;51941;52.210;5.158;2022-11-20T08:48:37;19.83;;;13.00;;
65328;SDS011;51941;52.210;5.158;2022-11-20T08:51:04;23.35;;;14.52;;
65328;SDS011;51941;52.210;5.158;2022-11-20T08:53:31;19.88;;;12.60;;
65328;SDS011;51941;52.210;5.158;2022-11-20T08:56:00;20.48;;;13.02;;
65328;SDS011;51941;52.210;5.158;2022-11-20T08:58:27;19.08;;;12.65;;
65328;SDS011;51941;52.210;5.158;2022-11-20T09:00:54;18.45;;;12.15;;
65328;SDS011;51941;52.210;5.158;2022-11-20T09:03:21;18.15;;;11.27;;
65328;SDS011;51941;52.210;5.158;2022-11-20T09:05:48;16.55;;;11.25;;
65328;SDS011;51941;52.210;5.158;2022-11-20T09:08:15;19.52;;;12.32;;
65328;SDS011;51941;52.210;5.158;2022-11-20T09:10:42;16.88;;;11.90;;
65328;SDS011;51941;52.210;5.158;2022-11-20T09:13:10;19.13;;;12.25;;
65328;SDS011;51941;52.210;5.158;2022-11-20T09:15:37;18.60;;;12.02;;
65328;SDS011;51941;52.210;5.158;2022-11-20T09:18:04;17.33;;;11.77;;
65328;SDS011;51941;52.210;5.158;2022-11-20T09:20:30;20.45;;;12.48;;
65328;SDS011;51941;52.210;5.158;2022-11-20T09:22:57;21.13;;;13.05;;
65328;SDS011;51941;52.210;5.158;2022-11-20T09:25:24;22.48;;;13.48;;
65328;SDS011;51941;52.210;5.158;2022-11-20T09:27:54;20.67;;;13.38;;
65328;SDS011;51941;52.210;5.158;2022-11-20T09:30:22;28.60;;;14.68;;
65328;SDS011;51941;52.210;5.158;2022-11-20T09:32:49;19.65;;;13.02;;
65328;SDS011;51941;52.210;5.158;2022-11-20T09:35:16;22.20;;;13.85;;
65328;SDS011;51941;52.210;5.158;2022-11-20T09:37:46;18.95;;;12.55;;
65328;SDS011;51941;52.210;5.158;2022-11-20T09:40:22;18.05;;;11.60;;
65328;SDS011;51941;52.210;5.158;2022-11-20T09:42:52;18.75;;;12.45;;
65328;SDS011;51941;52.210;5.158;2022-11-20T09:45:27;18.88;;;12.35;;
65328;SDS011;51941;52.210;5.158;2022-11-20T09:50:57;19.02;;;12.50;;
65328;SDS011;51941;52.210;5.158;2022-11-20T09:53:34;17.50;;;11.98;;
65328;SDS011;51941;52.210;5.158;2022-11-20T09:56:08;17.73;;;11.57;;
65328;SDS011;51941;52.210;5.158;2022-11-20T09:58:38;19.50;;;12.13;;
65328;SDS011;51941;52.210;5.158;2022-11-20T10:01:11;20.08;;;12.52;;
65328;SDS011;51941;52.210;5.158;2022-11-20T10:03:50;19.35;;;12.85;;
65328;SDS011;51941;52.210;5.158;2022-11-20T10:06:23;20.05;;;12.65;;
65328;SDS011;51941;52.210;5.158;2022-11-20T10:08:55;22.95;;;13.52;;
65328;SDS011;51941;52.210;5.158;2022-11-20T10:11:32;19.73;;;12.57;;
65328;SDS011;51941;52.210;5.158;2022-11-20T10:14:08;26.30;;;13.70;;
65328;SDS011;51941;52.210;5.158;2022-11-20T10:16:45;25.20;;;15.15;;
65328;SDS011;51941;52.210;5.158;2022-11-20T10:22:19;21.48;;;12.98;;
65328;SDS011;51941;52.210;5.158;2022-11-20T10:24:56;21.20;;;12.82;;
65328;SDS011;51941;52.210;5.158;2022-11-20T10:27:36;18.45;;;11.60;;
65328;SDS011;51941;52.210;5.158;2022-11-20T10:30:12;21.73;;;12.52;;
65328;SDS011;51941;52.210;5.158;2022-11-20T10:32:42;20.38;;;12.05;;
65328;SDS011;51941;52.210;5.158;2022-11-20T10:35:17;23.52;;;13.75;;
65328;SDS011;51941;52.210;5.158;2022-11-20T10:37:49;23.08;;;14.45;;
65328;SDS011;51941;52.210;5.158;2022-11-20T10:40:23;24.50;;;14.27;;
65328;SDS011;51941;52.210;5.158;2022-11-20T10:42:56;25.85;;;14.73;;
65328;SDS011;51941;52.210;5.158;2022-11-20T10:48:12;27.13;;;14.18;;
65328;SDS011;51941;52.210;5.158;2022-11-20T10:50:46;24.67;;;14.50;;
65328;SDS011;51941;52.210;5.158;2022-11-20T10:53:25;23.88;;;14.27;;
65328;SDS011;51941;52.210;5.158;2022-11-20T10:56:07;23.45;;;14.63;;
65328;SDS011;51941;52.210;5.158;2022-11-20T10:58:43;26.00;;;13.98;;
65328;SDS011;51941;52.210;5.158;2022-11-20T11:01:19;25.38;;;14.50;;
65328;SDS011;51941;52.210;5.158;2022-11-20T11:03:49;22.70;;;13.75;;
65328;SDS011;51941;52.210;5.158;2022-11-20T11:06:20;27.58;;;15.48;;
65328;SDS011;51941;52.210;5.158;2022-11-20T11:08:53;29.70;;;17.00;;
65328;SDS011;51941;52.210;5.158;2022-11-20T11:11:24;25.55;;;15.60;;
65328;SDS011;51941;52.210;5.158;2022-11-20T11:14:03;26.88;;;16.15;;
65328;SDS011;51941;52.210;5.158;2022-11-20T11:16:31;25.67;;;14.70;;
65328;SDS011;51941;52.210;5.158;2022-11-20T11:19:04;29.08;;;15.45;;
65328;SDS011;51941;52.210;5.158;2022-11-20T11:21:32;25.98;;;14.18;;
65328;SDS011;51941;52.210;5.158;2022-11-20T11:23:59;26.13;;;14.88;;
65328;SDS011;51941;52.210;5.158;2022-11-20T11:26:27;29.13;;;16.08;;
65328;SDS011;51941;52.210;5.158;2022-11-20T11:28:55;31.77;;;14.73;;
65328;SDS011;51941;52.210;5.158;2022-11-20T11:31:23;27.85;;;14.68;;
65328;SDS011;51941;52.210;5.158;2022-11-20T11:33:51;26.70;;;14.73;;
65328;SDS011;51941;52.210;5.158;2022-11-20T11:36:19;24.65;;;13.50;;
65328;SDS011;51941;52.210;5.158;2022-11-20T11:38:50;26.52;;;14.80;;
65328;SDS011;51941;52.210;5.158;2022-11-20T11:41:20;24.88;;;14.63;;
65328;SDS011;51941;52.210;5.158;2022-11-20T11:43:51;23.10;;;13.55;;
65328;SDS011;51941;52.210;5.158;2022-11-20T11:46:37;24.38;;;14.85;;
65328;SDS011;51941;52.210;5.158;2022-11-20T11:49:15;22.70;;;12.98;;
65328;SDS011;51941;52.210;5.158;2022-11-20T11:51:50;23.77;;;13.93;;
65328;SDS011;51941;52.210;5.158;2022-11-20T11:54:28;26.73;;;15.65;;
65328;SDS011;51941;52.210;5.158;2022-11-20T11:57:01;25.23;;;14.10;;
65328;SDS011;51941;52.210;5.158;2022-11-20T11:59:39;25.52;;;14.93;;
65328;SDS011;51941;52.210;5.158;2022-11-20T12:02:15;30.08;;;15.85;;
65328;SDS011;51941;52.210;5.158;2022-11-20T12:04:53;29.50;;;16.17;;
65328;SDS011;51941;52.210;5.158;2022-11-20T12:07:32;27.02;;;15.13;;
65328;SDS011;51941;52.210;5.158;2022-11-20T12:10:12;25.85;;;14.52;;
65328;SDS011;51941;52.210;5.158;2022-11-20T12:12:47;28.30;;;15.50;;
65328;SDS011;51941;52.210;5.158;2022-11-20T12:15:23;29.48;;;16.60;;
65328;SDS011;51941;52.210;5.158;2022-11-20T12:17:55;30.05;;;16.38;;
65328;SDS011;51941;52.210;5.158;2022-11-20T12:20:24;30.05;;;16.58;;
65328;SDS011;51941;52.210;5.158;2022-11-20T12:22:57;33.83;;;17.23;;
65328;SDS011;51941;52.210;5.158;2022-11-20T12:25:31;27.08;;;16.08;;
65328;SDS011;51941;52.210;5.158;2022-11-20T12:28:12;26.95;;;15.52;;
65328;SDS011;51941;52.210;5.158;2022-11-20T12:30:55;30.15;;;17.33;;
65328;SDS011;51941;52.210;5.158;2022-11-20T12:33:42;29.27;;;16.38;;
65328;SDS011;51941;52.210;5.158;2022-11-20T12:36:24;30.92;;;16.85;;
65328;SDS011;51941;52.210;5.158;2022-11-20T12:39:11;31.00;;;16.77;;
65328;SDS011;51941;52.210;5.158;2022-11-20T12:42:04;29.40;;;16.80;;
65328;SDS011;51941;52.210;5.158;2022-11-20T12:45:03;32.10;;;17.58;;
65328;SDS011;51941;52.210;5.158;2022-11-20T12:47:46;32.45;;;18.27;;
65328;SDS011;51941;52.210;5.158;2022-11-20T12:50:22;41.83;;;20.10;;
65328;SDS011;51941;52.210;5.158;2022-11-20T12:53:00;37.72;;;19.20;;
65328;SDS011;51941;52.210;5.158;2022-11-20T12:55:35;37.85;;;18.67;;
65328;SDS011;51941;52.210;5.158;2022-11-20T12:58:10;40.00;;;20.75;;
65328;SDS011;51941;52.210;5.158;2022-11-20T13:00:43;36.10;;;19.33;;
65328;SDS011;51941;52.210;5.158;2022-11-20T13:06:12;38.65;;;19.98;;
65328;SDS011;51941;52.210;5.158;2022-11-20T13:08:43;35.08;;;18.52;;
65328;SDS011;51941;52.210;5.158;2022-11-20T13:11:17;36.25;;;18.90;;
65328;SDS011;51941;52.210;5.158;2022-11-20T13:13:53;34.97;;;18.35;;
65328;SDS011;51941;52.210;5.158;2022-11-20T13:16:33;35.95;;;19.38;;
65328;SDS011;51941;52.210;5.158;2022-11-20T13:19:04;31.88;;;18.10;;
65328;SDS011;51941;52.210;5.158;2022-11-20T13:21:37;34.63;;;18.40;;
65328;SDS011;51941;52.210;5.158;2022-11-20T13:24:05;30.85;;;17.58;;
65328;SDS011;51941;52.210;5.158;2022-11-20T13:26:34;31.40;;;17.35;;
65328;SDS011;51941;52.210;5.158;2022-11-20T13:29:02;31.30;;;16.77;;
65328;SDS011;51941;52.210;5.158;2022-11-20T13:31:35;35.28;;;19.67;;
65328;SDS011;51941;52.210;5.158;2022-11-20T13:34:05;38.45;;;20.60;;
65328;SDS011;51941;52.210;5.158;2022-11-20T13:36:33;37.00;;;19.67;;
65328;SDS011;51941;52.210;5.158;2022-11-20T13:39:01;32.45;;;18.63;;
65328;SDS011;51941;52.210;5.158;2022-11-20T13:41:29;34.13;;;17.60;;
65328;SDS011;51941;52.210;5.158;2022-11-20T13:44:06;31.70;;;18.02;;
65328;SDS011;51941;52.210;5.158;2022-11-20T13:49:09;32.47;;;18.35;;
65328;SDS011;51941;52.210;5.158;2022-11-20T13:51:42;34.78;;;18.90;;
65328;SDS011;51941;52.210;5.158;2022-11-20T13:57:21;32.08;;;17.58;;
65328;SDS011;51941;52.210;5.158;2022-11-20T14:00:07;30.50;;;18.52;;
65328;SDS011;51941;52.210;5.158;2022-11-20T14:02:39;34.83;;;19.20;;
65328;SDS011;51941;52.210;5.158;2022-11-20T14:05:11;34.83;;;17.25;;
65328;SDS011;51941;52.210;5.158;2022-11-20T14:07:45;36.97;;;19.23;;
65328;SDS011;51941;52.210;5.158;2022-11-20T14:10:24;32.17;;;18.20;;
65328;SDS011;51941;52.210;5.158;2022-11-20T14:12:53;29.60;;;16.90;;
65328;SDS011;51941;52.210;5.158;2022-11-20T14:15:27;31.23;;;17.40;;
65328;SDS011;51941;52.210;5.158;2022-11-20T14:17:56;32.50;;;17.02;;
65328;SDS011;51941;52.210;5.158;2022-11-20T14:20:24;30.67;;;17.17;;
65328;SDS011;51941;52.210;5.158;2022-11-20T14:22:56;30.48;;;16.90;;
65328;SDS011;51941;52.210;5.158;2022-11-20T14:25:23;38.13;;;20.88;;
65328;SDS011;51941;52.210;5.158;2022-11-20T14:27:52;28.83;;;17.60;;
65328;SDS011;51941;52.210;5.158;2022-11-20T14:30:21;28.65;;;16.15;;
65328;SDS011;51941;52.210;5.158;2022-11-20T14:32:51;33.53;;;17.90;;
65328;SDS011;51941;52.210;5.158;2022-11-20T14:35:21;30.08;;;16.20;;
65328;SDS011;51941;52.210;5.158;2022-11-20T14:37:53;29.10;;;16.88;;
65328;SDS011;51941;52.210;5.158;2022-11-20T14:40:28;28.13;;;16.35;;
65328;SDS011;51941;52.210;5.158;2022-11-20T14:42:57;31.63;;;17.70;;
65328;SDS011;51941;52.210;5.158;2022-11-20T14:45:25;33.08;;;18.50;;
65328;SDS011;51941;52.210;5.158;2022-11-20T14:47:55;28.63;;;15.80;;
65328;SDS011;51941;52.210;5.158;2022-11-20T14:50:23;31.20;;;17.50;;
65328;SDS011;51941;52.210;5.158;2022-11-20T14:52:55;34.00;;;17.70;;
65328;SDS011;51941;52.210;5.158;2022-11-20T14:55:26;28.40;;;16.45;;
65328;SDS011;51941;52.210;5.158;2022-11-20T14:57:55;32.00;;;18.10;;
65328;SDS011;51941;52.210;5.158;2022-11-20T15:00:23;30.10;;;16.67;;